.
WxDataArchive / Data Records for 2016-05-08
2016-05-07 May 2016 2016-05-09

Data Records for Sunday, 08 May 2016

Time	Temp	Chill	HIndex	Humid	Dewpt	 Wind 	HiWind	WindDir	Rain 	Barom
-----	----	-----	------	-----	-----	------	------	-------	-----	-----
00:00	52.2	52.2	52.2	54	36.1	0	4	292	0.00	29.781 
00:05	52.0	52.0	52.0	55	36.3	0	2	292	0.00	29.781 
00:10	51.9	51.9	51.9	55	36.2	0	1	292	0.00	29.781 
00:15	51.7	51.7	51.7	55	36.1	0	0	---	0.00	29.786 
00:20	51.4	51.4	51.4	56	36.2	0	1	292	0.00	29.786 
00:25	51.3	51.3	51.3	56	36.1	0	1	292	0.00	29.786 
00:30	51.1	51.1	51.1	56	36.0	0	0	---	0.00	29.790 
00:35	51.0	51.0	51.0	57	36.3	0	1	292	0.00	29.790 
00:40	50.7	50.7	50.7	57	36.0	0	0	---	0.00	29.790 
00:45	50.4	50.4	50.4	58	36.2	0	0	---	0.00	29.799 
00:50	50.2	50.2	50.2	58	36.0	0	0	---	0.00	29.799 
00:55	49.9	49.9	49.9	59	36.1	0	0	---	0.00	29.799 
01:00	49.5	49.5	49.5	61	36.6	0	0	---	0.00	29.800 
01:05	49.1	49.1	49.1	61	36.2	0	0	---	0.00	29.800 
01:10	48.8	48.8	48.8	62	36.4	0	0	---	0.00	29.800 
01:15	48.5	48.5	48.5	62	36.1	0	0	---	0.00	29.800 
01:20	48.3	48.3	48.3	63	36.3	0	0	---	0.00	29.800 
01:25	48.2	48.2	48.2	63	36.2	0	1	292	0.00	29.800 
01:30	48.2	48.2	48.2	63	36.2	0	0	---	0.00	29.812 
01:35	48.0	48.0	48.0	62	35.6	0	0	---	0.00	29.812 
01:40	48.0	48.0	48.0	63	36.0	0	1	292	0.00	29.812 
01:45	47.7	47.7	47.7	64	36.1	0	0	---	0.00	29.812 
01:50	47.4	47.4	47.4	64	35.8	0	0	---	0.00	29.812 
01:55	47.1	47.1	47.1	65	35.9	0	0	---	0.00	29.812 
02:00	46.8	46.8	46.8	65	35.7	0	0	---	0.00	29.811 
02:05	46.4	46.4	46.4	66	35.7	0	0	---	0.00	29.811 
02:10	46.0	46.0	46.0	68	36.0	0	0	---	0.00	29.811 
02:15	45.7	45.7	45.7	69	36.1	0	0	---	0.00	29.816 
02:20	45.5	45.5	45.5	69	35.9	0	0	---	0.00	29.816 
02:25	45.5	45.5	45.5	69	35.9	0	0	---	0.00	29.816 
02:30	45.4	45.4	45.4	69	35.8	0	0	---	0.00	29.822 
02:35	45.2	45.2	45.2	69	35.6	0	0	---	0.00	29.822 
02:40	45.1	45.1	45.1	69	35.5	0	0	---	0.00	29.822 
02:45	44.9	44.9	44.9	70	35.7	0	0	---	0.00	29.826 
02:50	45.1	45.1	45.1	70	35.9	0	0	---	0.00	29.826 
02:55	45.1	45.1	45.1	70	35.9	0	0	---	0.00	29.826 
03:00	44.9	44.9	44.9	71	36.1	0	0	---	0.00	29.826 
03:05	44.8	44.8	44.8	71	36.0	0	0	---	0.00	29.826 
03:10	44.6	44.6	44.6	72	36.1	0	0	---	0.00	29.826 
03:15	44.3	44.3	44.3	72	35.9	0	0	---	0.00	29.825 
03:20	44.1	44.1	44.1	73	36.0	0	0	---	0.00	29.825 
03:25	43.8	43.8	43.8	73	35.7	0	0	---	0.00	29.825 
03:30	43.5	43.5	43.5	74	35.8	0	0	---	0.00	29.830 
03:35	43.2	43.2	43.2	76	36.2	0	0	---	0.00	29.830 
03:40	43.1	43.1	43.1	76	36.1	0	0	---	0.00	29.830 
03:45	43.1	43.1	43.1	76	36.1	0	0	---	0.00	29.833 
03:50	43.1	43.1	43.1	77	36.4	0	0	---	0.00	29.833 
03:55	42.9	42.9	42.9	77	36.2	0	0	---	0.00	29.833 
04:00	42.8	42.8	42.8	77	36.1	0	0	---	0.00	29.834 
04:05	42.6	42.6	42.6	78	36.2	0	0	---	0.00	29.834 
04:10	42.5	42.5	42.5	78	36.1	0	0	---	0.00	29.834 
04:15	42.3	42.3	42.3	79	36.3	0	0	---	0.00	29.842 
04:20	42.2	42.2	42.2	79	36.2	0	0	---	0.00	29.842 
04:25	41.9	41.9	41.9	79	35.9	0	0	---	0.00	29.842 
04:30	41.8	41.8	41.8	80	36.1	0	0	---	0.00	29.843 
04:35	41.6	41.6	41.6	80	35.9	0	0	---	0.00	29.843 
04:40	41.5	41.5	41.5	81	36.1	0	0	---	0.00	29.843 
04:45	41.3	41.3	41.3	81	35.9	0	0	---	0.00	29.842 
04:50	41.2	41.2	41.2	81	35.8	0	0	---	0.00	29.842 
04:55	40.9	40.9	40.9	82	35.8	0	0	---	0.00	29.842 
05:00	40.9	40.9	40.9	82	35.8	0	0	---	0.00	29.842 
05:05	40.8	40.8	40.8	82	35.7	0	0	---	0.00	29.842 
05:10	40.6	40.6	40.6	83	35.8	0	0	---	0.00	29.842 
05:15	40.5	40.5	40.5	83	35.8	0	0	---	0.00	29.845 
05:20	40.3	40.3	40.3	83	35.6	0	0	---	0.00	29.845 
05:25	40.2	40.2	40.2	84	35.8	0	0	---	0.00	29.845 
05:30	40.2	40.2	40.2	84	35.8	0	0	---	0.00	29.853 
05:35	40.1	40.1	40.1	84	35.7	0	0	---	0.00	29.853 
05:40	39.9	39.9	39.9	84	35.5	0	0	---	0.00	29.853 
05:45	39.9	39.9	39.9	84	35.5	0	0	---	0.00	29.856 
05:50	39.8	39.8	39.8	84	35.4	0	0	---	0.00	29.856 
05:55	39.8	39.8	39.8	85	35.7	0	0	---	0.00	29.856 
06:00	39.6	39.6	39.6	85	35.5	0	0	---	0.00	29.854 
06:05	39.6	39.6	39.6	85	35.5	0	0	---	0.00	29.854 
06:10	39.5	39.5	39.5	85	35.4	0	0	---	0.00	29.854 
06:15	39.3	39.3	39.3	86	35.5	0	0	---	0.00	29.861 
06:20	39.3	39.3	39.3	86	35.5	0	0	---	0.00	29.861 
06:25	39.2	39.2	39.2	86	35.4	0	0	---	0.00	29.861 
06:30	39.1	39.1	39.1	86	35.3	0	0	---	0.00	29.864 
06:35	38.9	38.9	38.9	86	35.1	0	0	---	0.00	29.864 
06:40	38.8	38.8	38.8	86	35.0	0	0	---	0.00	29.864 
06:45	38.8	38.8	38.8	86	35.0	0	0	---	0.00	29.870 
06:50	38.9	38.9	38.9	86	35.1	0	0	---	0.00	29.870 
06:55	38.9	38.9	38.9	86	35.1	0	0	---	0.00	29.870 
07:00	38.9	38.9	38.9	86	35.1	0	0	---	0.00	29.882 
07:05	38.9	38.9	38.9	86	35.1	0	0	---	0.00	29.882 
07:10	38.9	38.9	38.9	86	35.1	0	0	---	0.00	29.882 
07:15	39.1	39.1	39.1	86	35.3	0	0	---	0.00	29.896 
07:20	39.1	39.1	39.1	86	35.3	0	0	---	0.00	29.896 
07:25	39.3	39.3	39.3	86	35.5	0	0	---	0.00	29.896 
07:30	39.5	39.5	39.5	86	35.7	0	0	---	0.00	29.900 
07:35	39.8	39.8	39.8	87	36.3	0	0	---	0.00	29.900 
07:40	40.3	40.3	40.3	87	36.7	0	0	---	0.00	29.900 
07:45	41.1	41.1	41.1	87	37.5	0	0	---	0.00	29.905 
07:50	42.1	42.1	42.1	86	38.2	0	0	---	0.00	29.905 
07:55	43.2	43.2	43.2	85	39.0	0	0	---	0.00	29.905 
08:00	44.3	44.3	44.3	83	39.5	0	0	---	0.00	29.909 
08:05	45.5	45.5	45.5	79	39.4	0	0	---	0.00	29.909 
08:10	46.7	46.7	46.7	73	38.5	0	1	292	0.00	29.909 
08:15	47.7	47.7	47.7	69	38.0	0	1	292	0.00	29.910 
08:20	48.8	48.8	48.8	65	37.6	0	0	---	0.00	29.910 
08:25	49.6	49.6	49.6	64	37.9	0	0	---	0.00	29.910 
08:30	50.4	50.4	50.4	60	37.0	0	0	---	0.00	29.914 
08:35	51.1	51.1	51.1	60	37.7	0	0	---	0.00	29.914 
08:40	52.6	52.6	52.6	59	38.7	0	0	---	0.00	29.914 
08:45	53.3	53.3	53.3	48	34.1	0	0	---	0.00	29.911 
08:50	54.5	54.5	54.5	53	37.7	0	0	---	0.00	29.911 
08:55	56.2	56.2	56.2	48	36.8	0	0	---	0.00	29.911 
09:00	57.0	57.0	57.0	47	37.0	0	1	292	0.00	29.908 
09:05	58.1	58.1	58.1	42	35.1	0	1	292	0.00	29.908 
09:10	58.6	58.6	58.6	42	35.6	0	1	292	0.00	29.908 
09:15	59.2	59.2	59.2	38	33.6	0	2	292	0.00	29.909 
09:20	59.6	59.6	59.6	36	32.6	0	2	292	0.00	29.909 
09:25	59.9	59.9	59.9	39	34.9	0	1	292	0.00	29.909 
09:30	60.2	60.2	60.2	39	35.2	0	1	292	0.00	29.907 
09:35	60.4	60.4	60.4	37	34.0	0	2	292	0.00	29.907 
09:40	60.5	60.5	60.5	38	34.8	0	1	292	0.00	29.907 
09:45	60.9	60.9	60.9	37	34.5	0	2	292	0.00	29.911 
09:50	61.2	61.2	61.2	35	33.3	0	1	292	0.00	29.911 
09:55	61.0	61.0	61.0	35	33.2	0	1	292	0.00	29.911 
10:00	61.5	61.5	61.5	34	32.9	0	3	292	0.00	29.915 
10:05	61.6	61.6	61.6	34	33.0	1	2	292	0.00	29.915 
10:10	61.6	61.6	61.6	35	33.7	0	2	292	0.00	29.915 
10:15	61.6	61.6	61.6	31	30.7	1	3	292	0.00	29.916 
10:20	61.5	61.5	61.5	31	30.6	0	1	292	0.00	29.916 
10:25	61.6	61.6	61.6	32	31.5	0	2	292	0.00	29.916 
10:30	61.5	61.5	61.5	34	32.9	0	3	292	0.00	29.918 
10:35	61.5	61.5	61.5	30	29.8	0	3	292	0.00	29.918 
10:40	62.0	62.0	62.0	29	29.4	0	3	292	0.00	29.918 
10:45	62.1	62.1	62.1	29	29.5	0	3	292	0.00	29.918 
10:50	62.3	62.3	62.3	34	33.6	0	2	315	0.00	29.918 
10:55	62.3	62.3	62.3	32	32.1	0	2	315	0.00	29.918 
11:00	62.7	62.7	62.7	32	32.4	0	3	315	0.00	29.921 
11:05	63.4	63.4	63.4	31	32.2	0	2	68	0.00	29.921 
11:10	64.0	64.0	64.0	29	31.1	0	2	68	0.00	29.921 
11:15	64.0	64.0	64.0	28	30.2	1	3	68	0.00	29.920 
11:20	64.0	64.0	64.0	29	31.1	0	1	68	0.00	29.920 
11:25	64.0	64.0	64.0	28	30.2	1	2	68	0.00	29.920 
11:30	64.3	64.3	64.3	31	33.0	0	3	68	0.00	29.926 
11:35	64.8	64.8	64.8	32	34.2	0	3	68	0.00	29.926 
11:40	65.0	65.0	65.0	29	32.0	1	3	68	0.00	29.926 
11:45	65.0	65.0	65.0	28	31.1	1	3	68	0.00	29.926 
11:50	64.8	64.8	64.8	28	30.9	0	3	68	0.00	29.926 
11:55	64.7	64.7	64.7	36	37.1	0	3	112	0.00	29.926 
12:00	65.3	65.3	65.3	27	30.5	1	3	112	0.00	29.929 
12:05	65.3	65.3	65.3	26	29.5	1	3	112	0.00	29.929 
12:10	65.6	65.6	65.6	30	33.3	0	1	112	0.00	29.929 
12:15	66.0	66.0	66.0	29	32.8	0	3	112	0.00	29.929 
12:20	66.1	66.1	66.1	31	34.6	1	5	112	0.00	29.929 
12:25	66.3	66.3	66.3	29	33.1	0	1	112	0.00	29.929 
12:30	66.8	66.8	66.8	32	36.0	0	1	112	0.00	29.918 
12:35	66.8	66.8	66.8	28	32.6	0	1	112	0.00	29.918 
12:40	66.3	66.3	66.3	26	30.4	1	3	315	0.00	29.918 
12:45	66.1	66.1	66.1	29	32.9	1	2	315	0.00	29.916 
12:50	66.1	66.1	66.1	28	32.0	1	2	315	0.00	29.916 
12:55	66.3	66.3	66.3	26	30.4	1	3	315	0.00	29.916 
13:00	66.1	66.1	66.1	27	31.1	1	4	292	0.00	29.916 
13:05	66.1	66.1	66.1	27	31.1	1	3	315	0.00	29.916 
13:10	66.0	66.0	66.0	31	34.5	1	4	315	0.00	29.916 
13:15	66.3	66.3	66.3	28	32.2	1	3	315	0.00	29.919 
13:20	66.4	66.4	66.4	29	33.2	1	5	315	0.00	29.919 
13:25	67.3	67.3	67.3	36	39.4	0	4	90	0.00	29.919 
13:30	67.4	67.4	67.4	28	33.2	0	1	90	0.00	29.915 
13:35	67.6	67.6	67.6	27	32.4	0	3	270	0.00	29.915 
13:40	67.3	67.3	67.3	28	33.1	0	2	270	0.00	29.915 
13:45	67.1	67.1	67.1	29	33.8	0	2	270	0.00	29.906 
13:50	67.3	67.3	67.3	28	33.1	0	4	90	0.00	29.906 
13:55	67.1	67.1	67.1	28	32.9	0	2	90	0.00	29.906 
14:00	67.3	67.3	67.3	30	34.8	0	3	90	0.00	29.901 
14:05	67.3	67.3	67.3	28	33.1	0	2	90	0.00	29.901 
14:10	66.9	66.9	66.9	29	33.6	0	2	90	0.00	29.901 
14:15	67.1	67.1	67.1	29	33.8	0	1	90	0.00	29.898 
14:20	67.3	67.3	67.3	28	33.1	1	3	90	0.00	29.898 
14:25	67.4	67.4	67.4	31	35.7	1	4	90	0.00	29.898 
14:30	67.4	67.4	67.4	27	32.3	0	2	338	0.00	29.896 
14:35	67.3	67.3	67.3	27	32.2	0	2	338	0.00	29.896 
14:40	67.4	67.4	67.4	30	34.9	0	2	338	0.00	29.896 
14:45	67.8	67.8	67.8	28	33.5	1	4	292	0.00	29.894 
14:50	67.8	67.8	67.8	27	32.6	1	5	292	0.00	29.894 
14:55	67.6	67.6	67.6	28	33.3	1	4	292	0.00	29.894 
15:00	67.4	67.4	67.4	28	33.2	1	5	338	0.00	29.892 
15:05	68.1	68.1	68.1	31	36.3	0	2	338	0.00	29.892 
15:10	68.8	68.8	68.8	28	34.4	0	1	338	0.00	29.892 
15:15	68.6	68.6	68.6	26	32.3	2	5	315	0.00	29.886 
15:20	68.6	68.6	68.6	30	35.9	1	2	315	0.00	29.886 
15:25	68.6	68.6	68.6	28	34.2	1	3	338	0.00	29.886 
15:30	69.1	69.1	69.1	29	35.5	0	3	338	0.00	29.880 
15:35	68.9	68.9	68.9	31	37.0	2	5	270	0.00	29.880 
15:40	69.1	69.1	69.1	28	34.6	1	5	292	0.00	29.880 
15:45	68.3	68.3	68.3	27	33.0	2	5	292	0.00	29.883 
15:50	67.9	67.9	67.9	27	32.7	2	5	315	0.00	29.883 
15:55	68.3	68.3	68.3	31	36.5	1	3	315	0.00	29.883 
16:00	68.9	68.9	68.9	29	35.3	1	5	292	0.00	29.874 
16:05	69.1	69.1	69.1	28	34.6	1	5	315	0.00	29.874 
16:10	69.1	69.1	69.1	27	33.7	1	3	292	0.00	29.874 
16:15	68.9	68.9	68.9	29	35.3	1	3	292	0.00	29.875 
16:20	69.3	69.3	69.3	27	33.9	1	3	292	0.00	29.875 
16:25	69.1	69.1	69.1	28	34.6	1	4	292	0.00	29.875 
16:30	68.9	68.9	68.9	28	34.4	0	2	292	0.00	29.873 
16:35	68.9	68.9	68.9	29	35.3	0	1	292	0.00	29.873 
16:40	69.3	69.3	69.3	28	34.8	1	4	292	0.00	29.873 
16:45	69.4	69.4	69.4	27	34.0	1	3	292	0.00	29.872 
16:50	68.9	68.9	68.9	28	34.4	2	5	270	0.00	29.872 
16:55	68.9	68.9	68.9	30	36.2	0	1	270	0.00	29.872 
17:00	68.9	68.9	68.9	31	37.0	1	6	292	0.00	29.874 
17:05	68.8	68.8	68.8	28	34.4	1	4	292	0.00	29.874 
17:10	68.6	68.6	68.6	27	33.3	1	3	292	0.00	29.874 
17:15	68.1	68.1	68.1	27	32.9	1	4	292	0.00	29.875 
17:20	68.1	68.1	68.1	29	34.6	1	4	315	0.00	29.875 
17:25	67.8	67.8	67.8	28	33.5	3	7	315	0.00	29.875 
17:30	67.8	67.8	67.8	27	32.6	1	3	315	0.00	29.876 
17:35	67.8	67.8	67.8	28	33.5	2	6	292	0.00	29.876 
17:40	67.8	67.8	67.8	29	34.4	1	4	292	0.00	29.876 
17:45	67.6	67.6	67.6	27	32.4	1	4	292	0.00	29.879 
17:50	67.8	67.8	67.8	28	33.5	1	4	292	0.00	29.879 
17:55	67.6	67.6	67.6	28	33.3	1	3	315	0.00	29.879 
18:00	67.6	67.6	67.6	28	33.3	1	3	315	0.00	29.883 
18:05	67.4	67.4	67.4	29	34.0	1	3	315	0.00	29.883 
18:10	67.6	67.6	67.6	31	35.9	0	2	315	0.00	29.883 
18:15	67.6	67.6	67.6	30	35.1	1	4	315	0.00	29.890 
18:20	67.3	67.3	67.3	33	37.2	0	1	315	0.00	29.890 
18:25	66.9	66.9	66.9	34	37.6	0	3	315	0.00	29.890 
18:30	66.3	66.3	66.3	32	35.6	1	4	315	0.00	29.896 
18:35	65.8	65.8	65.8	34	36.6	0	2	315	0.00	29.896 
18:40	65.6	65.6	65.6	33	35.7	1	3	292	0.00	29.896 
18:45	65.5	65.5	65.5	32	34.9	0	2	292	0.00	29.897 
18:50	65.0	65.0	65.0	33	35.2	0	2	292	0.00	29.897 
18:55	64.7	64.7	64.7	33	34.9	1	3	292	0.00	29.897 
19:00	64.7	64.7	64.7	33	34.9	1	4	292	0.00	29.903 
19:05	64.5	64.5	64.5	34	35.5	0	3	292	0.00	29.903 
19:10	64.5	64.5	64.5	33	34.8	0	2	292	0.00	29.903 
19:15	64.2	64.2	64.2	35	36.0	0	2	292	0.00	29.906 
19:20	64.0	64.0	64.0	34	35.1	0	1	292	0.00	29.906 
19:25	63.9	63.9	63.9	35	35.7	0	1	292	0.00	29.906 
19:30	63.5	63.5	63.5	38	37.4	1	5	292	0.00	29.909 
19:35	63.1	63.1	63.1	40	38.4	1	4	292	0.00	29.909 
19:40	62.6	62.6	62.6	41	38.6	0	4	292	0.00	29.909 
19:45	62.0	62.0	62.0	43	39.2	0	2	270	0.00	29.921 
19:50	61.5	61.5	61.5	44	39.4	0	2	338	0.00	29.921 
19:55	61.2	61.2	61.2	45	39.7	0	1	338	0.00	29.921 
20:00	60.9	60.9	60.9	46	40.0	0	2	338	0.00	29.926 
20:05	60.4	60.4	60.4	46	39.5	0	2	338	0.00	29.926 
20:10	60.1	60.1	60.1	47	39.8	0	1	292	0.00	29.926 
20:15	59.9	59.9	59.9	47	39.6	0	1	292	0.00	29.923 
20:20	59.6	59.6	59.6	47	39.3	0	1	292	0.00	29.923 
20:25	59.3	59.3	59.3	48	39.6	0	1	292	0.00	29.923 
20:30	59.2	59.2	59.2	49	40.0	0	1	292	0.00	29.929 
20:35	58.9	58.9	58.9	50	40.3	0	1	292	0.00	29.929 
20:40	58.7	58.7	58.7	51	40.6	0	1	292	0.00	29.929 
20:45	58.4	58.4	58.4	51	40.3	0	1	292	0.00	29.938 
20:50	58.3	58.3	58.3	52	40.8	0	0	---	0.00	29.938 
20:55	58.0	58.0	58.0	53	41.0	0	1	292	0.00	29.938 
21:00	57.8	57.8	57.8	53	40.8	0	2	292	0.00	29.947 
21:05	57.6	57.6	57.6	53	40.6	0	1	292	0.00	29.947 
21:10	57.5	57.5	57.5	53	40.5	0	1	292	0.00	29.947 
21:15	57.3	57.3	57.3	53	40.3	0	2	292	0.00	29.944 
21:20	57.2	57.2	57.2	53	40.2	0	2	292	0.00	29.944 
21:25	57.0	57.0	57.0	53	40.0	0	1	292	0.00	29.944 
21:30	56.9	56.9	56.9	54	40.4	0	1	292	0.00	29.946 
21:35	56.7	56.7	56.7	55	40.7	0	1	292	0.00	29.946 
21:40	56.5	56.5	56.5	56	41.0	0	1	292	0.00	29.946 
21:45	56.3	56.3	56.3	57	41.3	0	1	292	0.00	29.953 
21:50	56.2	56.2	56.2	58	41.6	0	1	292	0.00	29.953 
21:55	56.0	56.0	56.0	59	41.9	0	1	292	0.00	29.953 
22:00	55.9	55.9	55.9	60	42.2	0	1	292	0.00	29.954 
22:05	55.7	55.7	55.7	60	42.0	0	0	---	0.00	29.954 
22:10	55.6	55.6	55.6	61	42.4	0	0	---	0.00	29.954 
22:15	55.3	55.3	55.3	62	42.5	0	0	---	0.00	29.954 
22:20	55.1	55.1	55.1	62	42.3	0	0	---	0.00	29.954 
22:25	55.0	55.0	55.0	63	42.6	0	0	---	0.00	29.954 
22:30	54.8	54.8	54.8	63	42.4	0	0	---	0.00	29.949 
22:35	54.5	54.5	54.5	64	42.6	0	0	---	0.00	29.949 
22:40	54.2	54.2	54.2	65	42.7	0	0	---	0.00	29.949 
22:45	53.8	53.8	53.8	65	42.3	0	0	---	0.00	29.946 
22:50	53.5	53.5	53.5	66	42.4	0	0	---	0.00	29.946 
22:55	53.2	53.2	53.2	67	42.5	0	0	---	0.00	29.946 
23:00	52.8	52.8	52.8	68	42.5	0	0	---	0.00	29.945 
23:05	52.5	52.5	52.5	69	42.6	0	0	---	0.00	29.945 
23:10	52.0	52.0	52.0	71	42.9	0	0	---	0.00	29.945 
23:15	51.6	51.6	51.6	72	42.9	0	0	---	0.00	29.946 
23:20	51.4	51.4	51.4	73	43.0	0	0	---	0.00	29.946 
23:25	51.1	51.1	51.1	74	43.1	0	0	---	0.00	29.946 
23:30	50.8	50.8	50.8	75	43.2	0	0	---	0.00	29.938 
23:35	50.5	50.5	50.5	75	42.9	0	0	---	0.00	29.938 
23:40	50.2	50.2	50.2	76	42.9	0	0	---	0.00	29.938 
23:45	49.9	49.9	49.9	77	43.0	0	0	---	0.00	29.939 
23:50	49.6	49.6	49.6	78	43.0	0	0	---	0.00	29.939 
23:55	49.4	49.4	49.4	79	43.2	0	0	---	0.00	29.939 

CoCoRaHS
IN-AL-39
A2 Web Hosting
Creative Commons License
GoDaddy
search engine by freefind advanced

loaded 2018-11-18 11:26:15 • last modified 2010-11-18 10:43:29
Privacy PolicyDisclaimer
• wx.awcolley.com is powered by PmWiki v.2002016 •
• all content (unless otherwise noted) © 2018 A W Colley